sensor_id;sensor_type;location;lat;lon;timestamp;P1;durP1;ratioP1;P2;durP2;ratioP2
19828;SDS011;10075;50.924;4.396;2023-05-10T00:01:00;15.10;;;7.40;;
19828;SDS011;10075;50.924;4.396;2023-05-10T00:03:27;16.00;;;7.38;;
19828;SDS011;10075;50.924;4.396;2023-05-10T00:05:54;13.98;;;7.85;;
19828;SDS011;10075;50.924;4.396;2023-05-10T00:08:21;14.93;;;7.40;;
19828;SDS011;10075;50.924;4.396;2023-05-10T00:10:50;15.85;;;8.50;;
19828;SDS011;10075;50.924;4.396;2023-05-10T00:13:17;13.43;;;7.97;;
19828;SDS011;10075;50.924;4.396;2023-05-10T00:15:44;13.93;;;9.10;;
19828;SDS011;10075;50.924;4.396;2023-05-10T00:18:10;14.52;;;8.02;;
19828;SDS011;10075;50.924;4.396;2023-05-10T00:20:37;18.98;;;8.75;;
19828;SDS011;10075;50.924;4.396;2023-05-10T00:23:04;16.80;;;10.10;;
19828;SDS011;10075;50.924;4.396;2023-05-10T00:25:31;19.33;;;9.38;;
19828;SDS011;10075;50.924;4.396;2023-05-10T00:28:00;16.50;;;9.50;;
19828;SDS011;10075;50.924;4.396;2023-05-10T00:30:27;18.20;;;10.23;;
19828;SDS011;10075;50.924;4.396;2023-05-10T00:32:54;17.92;;;9.85;;
19828;SDS011;10075;50.924;4.396;2023-05-10T00:35:21;17.40;;;10.45;;
19828;SDS011;10075;50.924;4.396;2023-05-10T00:37:48;16.17;;;9.77;;
19828;SDS011;10075;50.924;4.396;2023-05-10T00:40:15;18.63;;;10.48;;
19828;SDS011;10075;50.924;4.396;2023-05-10T00:42:42;17.55;;;9.75;;
19828;SDS011;10075;50.924;4.396;2023-05-10T00:45:10;18.80;;;10.60;;
19828;SDS011;10075;50.924;4.396;2023-05-10T00:47:38;18.23;;;10.45;;
19828;SDS011;10075;50.924;4.396;2023-05-10T00:50:06;19.00;;;10.95;;
19828;SDS011;10075;50.924;4.396;2023-05-10T00:52:34;20.92;;;11.27;;
19828;SDS011;10075;50.924;4.396;2023-05-10T00:55:01;18.35;;;11.23;;
19828;SDS011;10075;50.924;4.396;2023-05-10T00:57:29;21.30;;;10.93;;
19828;SDS011;10075;50.924;4.396;2023-05-10T00:59:56;22.00;;;11.63;;
19828;SDS011;10075;50.924;4.396;2023-05-10T01:02:25;21.58;;;11.82;;
19828;SDS011;10075;50.924;4.396;2023-05-10T01:04:52;17.80;;;10.68;;
19828;SDS011;10075;50.924;4.396;2023-05-10T01:07:19;15.63;;;9.77;;
19828;SDS011;10075;50.924;4.396;2023-05-10T01:09:46;19.95;;;10.45;;
19828;SDS011;10075;50.924;4.396;2023-05-10T01:12:13;25.13;;;11.75;;
19828;SDS011;10075;50.924;4.396;2023-05-10T01:14:40;18.40;;;10.57;;
19828;SDS011;10075;50.924;4.396;2023-05-10T01:17:08;19.00;;;10.75;;
19828;SDS011;10075;50.924;4.396;2023-05-10T01:19:38;17.95;;;11.48;;
19828;SDS011;10075;50.924;4.396;2023-05-10T01:22:07;19.42;;;12.35;;
19828;SDS011;10075;50.924;4.396;2023-05-10T01:24:51;20.23;;;11.70;;
19828;SDS011;10075;50.924;4.396;2023-05-10T01:27:36;20.65;;;11.55;;
19828;SDS011;10075;50.924;4.396;2023-05-10T01:30:34;18.95;;;12.68;;
19828;SDS011;10075;50.924;4.396;2023-05-10T01:33:14;19.13;;;12.20;;
19828;SDS011;10075;50.924;4.396;2023-05-10T01:35:47;19.30;;;11.95;;
19828;SDS011;10075;50.924;4.396;2023-05-10T01:38:22;21.77;;;13.35;;
19828;SDS011;10075;50.924;4.396;2023-05-10T01:41:01;18.90;;;13.00;;
19828;SDS011;10075;50.924;4.396;2023-05-10T01:43:37;22.27;;;13.15;;
19828;SDS011;10075;50.924;4.396;2023-05-10T01:46:09;24.83;;;12.63;;
19828;SDS011;10075;50.924;4.396;2023-05-10T01:48:47;19.40;;;12.68;;
19828;SDS011;10075;50.924;4.396;2023-05-10T01:51:19;21.20;;;13.60;;
19828;SDS011;10075;50.924;4.396;2023-05-10T01:53:50;22.58;;;13.35;;
19828;SDS011;10075;50.924;4.396;2023-05-10T01:56:20;23.40;;;12.50;;
19828;SDS011;10075;50.924;4.396;2023-05-10T01:58:51;24.25;;;12.75;;
19828;SDS011;10075;50.924;4.396;2023-05-10T02:01:20;24.05;;;13.23;;
19828;SDS011;10075;50.924;4.396;2023-05-10T02:03:50;26.50;;;12.82;;
19828;SDS011;10075;50.924;4.396;2023-05-10T02:06:18;21.33;;;12.55;;
19828;SDS011;10075;50.924;4.396;2023-05-10T02:08:48;23.10;;;13.18;;
19828;SDS011;10075;50.924;4.396;2023-05-10T02:11:16;20.48;;;12.68;;
19828;SDS011;10075;50.924;4.396;2023-05-10T02:13:46;26.35;;;14.65;;
19828;SDS011;10075;50.924;4.396;2023-05-10T02:16:15;22.23;;;13.30;;
19828;SDS011;10075;50.924;4.396;2023-05-10T02:18:43;21.70;;;13.57;;
19828;SDS011;10075;50.924;4.396;2023-05-10T02:21:12;25.83;;;13.27;;
19828;SDS011;10075;50.924;4.396;2023-05-10T02:23:41;26.35;;;13.65;;
19828;SDS011;10075;50.924;4.396;2023-05-10T02:26:11;23.35;;;14.45;;
19828;SDS011;10075;50.924;4.396;2023-05-10T02:28:40;22.90;;;13.95;;
19828;SDS011;10075;50.924;4.396;2023-05-10T02:31:08;19.70;;;13.40;;
19828;SDS011;10075;50.924;4.396;2023-05-10T02:33:37;24.33;;;13.85;;
19828;SDS011;10075;50.924;4.396;2023-05-10T02:36:06;23.77;;;13.35;;
19828;SDS011;10075;50.924;4.396;2023-05-10T02:38:36;23.90;;;14.35;;
19828;SDS011;10075;50.924;4.396;2023-05-10T02:41:05;22.85;;;13.95;;
19828;SDS011;10075;50.924;4.396;2023-05-10T02:43:34;23.77;;;14.65;;
19828;SDS011;10075;50.924;4.396;2023-05-10T02:46:01;24.30;;;14.52;;
19828;SDS011;10075;50.924;4.396;2023-05-10T02:48:29;28.98;;;15.68;;
19828;SDS011;10075;50.924;4.396;2023-05-10T02:50:57;23.33;;;14.93;;
19828;SDS011;10075;50.924;4.396;2023-05-10T02:53:30;27.95;;;15.30;;
19828;SDS011;10075;50.924;4.396;2023-05-10T02:56:01;27.85;;;16.80;;
19828;SDS011;10075;50.924;4.396;2023-05-10T02:58:35;26.17;;;15.80;;
19828;SDS011;10075;50.924;4.396;2023-05-10T03:01:02;25.25;;;15.73;;
19828;SDS011;10075;50.924;4.396;2023-05-10T03:03:29;26.38;;;15.43;;
19828;SDS011;10075;50.924;4.396;2023-05-10T03:05:57;24.75;;;15.77;;
19828;SDS011;10075;50.924;4.396;2023-05-10T03:08:24;26.13;;;15.88;;
19828;SDS011;10075;50.924;4.396;2023-05-10T03:10:55;25.90;;;16.00;;
19828;SDS011;10075;50.924;4.396;2023-05-10T03:13:36;33.40;;;17.42;;
19828;SDS011;10075;50.924;4.396;2023-05-10T03:16:15;23.15;;;15.07;;
19828;SDS011;10075;50.924;4.396;2023-05-10T03:18:48;24.10;;;14.85;;
19828;SDS011;10075;50.924;4.396;2023-05-10T03:21:21;25.08;;;15.77;;
19828;SDS011;10075;50.924;4.396;2023-05-10T03:23:53;23.70;;;15.35;;
19828;SDS011;10075;50.924;4.396;2023-05-10T03:26:26;25.73;;;16.13;;
19828;SDS011;10075;50.924;4.396;2023-05-10T03:28:55;24.98;;;17.13;;
19828;SDS011;10075;50.924;4.396;2023-05-10T03:31:24;26.47;;;15.97;;
19828;SDS011;10075;50.924;4.396;2023-05-10T03:33:51;27.77;;;17.55;;
19828;SDS011;10075;50.924;4.396;2023-05-10T03:36:19;26.40;;;17.23;;
19828;SDS011;10075;50.924;4.396;2023-05-10T03:38:46;26.70;;;17.17;;
19828;SDS011;10075;50.924;4.396;2023-05-10T03:41:13;29.60;;;18.85;;
19828;SDS011;10075;50.924;4.396;2023-05-10T03:43:41;30.98;;;17.55;;
19828;SDS011;10075;50.924;4.396;2023-05-10T03:46:08;33.35;;;19.83;;
19828;SDS011;10075;50.924;4.396;2023-05-10T03:48:35;33.53;;;19.58;;
19828;SDS011;10075;50.924;4.396;2023-05-10T03:51:02;33.97;;;18.87;;
19828;SDS011;10075;50.924;4.396;2023-05-10T03:53:29;35.45;;;20.27;;
19828;SDS011;10075;50.924;4.396;2023-05-10T03:55:56;36.53;;;20.55;;
19828;SDS011;10075;50.924;4.396;2023-05-10T03:58:23;34.63;;;20.85;;
19828;SDS011;10075;50.924;4.396;2023-05-10T04:00:52;33.30;;;19.30;;
19828;SDS011;10075;50.924;4.396;2023-05-10T04:03:20;34.28;;;19.48;;
19828;SDS011;10075;50.924;4.396;2023-05-10T04:05:48;33.33;;;20.10;;
19828;SDS011;10075;50.924;4.396;2023-05-10T04:08:14;33.85;;;19.88;;
19828;SDS011;10075;50.924;4.396;2023-05-10T04:10:42;34.88;;;19.70;;
19828;SDS011;10075;50.924;4.396;2023-05-10T04:13:09;32.83;;;17.63;;
19828;SDS011;10075;50.924;4.396;2023-05-10T04:15:36;33.08;;;20.55;;
19828;SDS011;10075;50.924;4.396;2023-05-10T04:18:04;35.92;;;21.58;;
19828;SDS011;10075;50.924;4.396;2023-05-10T04:20:32;34.97;;;20.75;;
19828;SDS011;10075;50.924;4.396;2023-05-10T04:22:59;35.53;;;21.20;;
19828;SDS011;10075;50.924;4.396;2023-05-10T04:25:26;37.35;;;22.00;;
19828;SDS011;10075;50.924;4.396;2023-05-10T04:27:53;42.45;;;22.25;;
19828;SDS011;10075;50.924;4.396;2023-05-10T04:30:20;44.92;;;23.80;;
19828;SDS011;10075;50.924;4.396;2023-05-10T04:32:47;36.75;;;21.38;;
19828;SDS011;10075;50.924;4.396;2023-05-10T04:35:16;34.92;;;20.98;;
19828;SDS011;10075;50.924;4.396;2023-05-10T04:37:43;37.60;;;21.88;;
19828;SDS011;10075;50.924;4.396;2023-05-10T04:40:10;42.22;;;22.70;;
19828;SDS011;10075;50.924;4.396;2023-05-10T04:42:39;35.38;;;20.98;;
19828;SDS011;10075;50.924;4.396;2023-05-10T04:45:07;35.53;;;21.05;;
19828;SDS011;10075;50.924;4.396;2023-05-10T04:47:35;40.28;;;23.48;;
19828;SDS011;10075;50.924;4.396;2023-05-10T04:50:03;42.13;;;22.33;;
19828;SDS011;10075;50.924;4.396;2023-05-10T04:52:32;34.85;;;20.80;;
19828;SDS011;10075;50.924;4.396;2023-05-10T04:54:59;29.65;;;20.27;;
19828;SDS011;10075;50.924;4.396;2023-05-10T04:57:26;34.97;;;22.38;;
19828;SDS011;10075;50.924;4.396;2023-05-10T04:59:53;32.65;;;21.85;;
19828;SDS011;10075;50.924;4.396;2023-05-10T05:02:20;31.25;;;21.23;;
19828;SDS011;10075;50.924;4.396;2023-05-10T05:04:48;36.35;;;21.27;;
19828;SDS011;10075;50.924;4.396;2023-05-10T05:07:16;34.47;;;22.25;;
19828;SDS011;10075;50.924;4.396;2023-05-10T05:09:44;30.63;;;21.02;;
19828;SDS011;10075;50.924;4.396;2023-05-10T05:12:11;30.25;;;20.35;;
19828;SDS011;10075;50.924;4.396;2023-05-10T05:14:39;29.77;;;19.23;;
19828;SDS011;10075;50.924;4.396;2023-05-10T05:17:06;35.72;;;21.13;;
19828;SDS011;10075;50.924;4.396;2023-05-10T05:19:33;36.13;;;21.23;;
19828;SDS011;10075;50.924;4.396;2023-05-10T05:22:00;31.67;;;19.90;;
19828;SDS011;10075;50.924;4.396;2023-05-10T05:24:27;32.83;;;20.02;;
19828;SDS011;10075;50.924;4.396;2023-05-10T05:26:56;31.60;;;21.10;;
19828;SDS011;10075;50.924;4.396;2023-05-10T05:29:23;30.95;;;19.83;;
19828;SDS011;10075;50.924;4.396;2023-05-10T05:31:50;29.45;;;20.02;;
19828;SDS011;10075;50.924;4.396;2023-05-10T05:34:17;28.15;;;19.13;;
19828;SDS011;10075;50.924;4.396;2023-05-10T05:36:45;27.35;;;18.38;;
19828;SDS011;10075;50.924;4.396;2023-05-10T05:39:12;29.52;;;19.77;;
19828;SDS011;10075;50.924;4.396;2023-05-10T05:41:40;26.67;;;18.30;;
19828;SDS011;10075;50.924;4.396;2023-05-10T05:44:08;28.17;;;18.27;;
19828;SDS011;10075;50.924;4.396;2023-05-10T05:46:35;28.88;;;17.42;;
19828;SDS011;10075;50.924;4.396;2023-05-10T05:49:03;25.33;;;17.45;;
19828;SDS011;10075;50.924;4.396;2023-05-10T05:51:30;26.15;;;17.83;;
19828;SDS011;10075;50.924;4.396;2023-05-10T05:53:57;28.40;;;18.52;;
19828;SDS011;10075;50.924;4.396;2023-05-10T05:56:24;28.48;;;19.42;;
19828;SDS011;10075;50.924;4.396;2023-05-10T05:58:51;29.48;;;18.95;;
19828;SDS011;10075;50.924;4.396;2023-05-10T06:01:20;27.55;;;18.85;;
19828;SDS011;10075;50.924;4.396;2023-05-10T06:03:47;28.50;;;18.05;;
19828;SDS011;10075;50.924;4.396;2023-05-10T06:06:14;33.33;;;18.33;;
19828;SDS011;10075;50.924;4.396;2023-05-10T06:08:41;29.88;;;17.60;;
19828;SDS011;10075;50.924;4.396;2023-05-10T06:11:07;26.00;;;17.95;;
19828;SDS011;10075;50.924;4.396;2023-05-10T06:13:34;26.73;;;18.23;;
19828;SDS011;10075;50.924;4.396;2023-05-10T06:16:02;26.85;;;18.92;;
19828;SDS011;10075;50.924;4.396;2023-05-10T06:18:30;25.60;;;17.17;;
19828;SDS011;10075;50.924;4.396;2023-05-10T06:20:57;28.45;;;19.60;;
19828;SDS011;10075;50.924;4.396;2023-05-10T06:23:24;30.83;;;20.85;;
19828;SDS011;10075;50.924;4.396;2023-05-10T06:25:51;31.42;;;21.42;;
19828;SDS011;10075;50.924;4.396;2023-05-10T06:28:19;35.03;;;23.05;;
19828;SDS011;10075;50.924;4.396;2023-05-10T06:30:46;33.17;;;22.23;;
19828;SDS011;10075;50.924;4.396;2023-05-10T06:33:13;35.00;;;23.80;;
19828;SDS011;10075;50.924;4.396;2023-05-10T06:35:42;33.95;;;21.83;;
19828;SDS011;10075;50.924;4.396;2023-05-10T06:38:09;31.27;;;21.95;;
19828;SDS011;10075;50.924;4.396;2023-05-10T06:40:36;32.53;;;20.00;;
19828;SDS011;10075;50.924;4.396;2023-05-10T06:43:07;30.55;;;18.92;;
19828;SDS011;10075;50.924;4.396;2023-05-10T06:45:34;32.35;;;20.08;;
19828;SDS011;10075;50.924;4.396;2023-05-10T06:48:01;29.63;;;19.77;;
19828;SDS011;10075;50.924;4.396;2023-05-10T06:50:28;35.58;;;21.45;;
19828;SDS011;10075;50.924;4.396;2023-05-10T06:52:56;32.30;;;21.10;;
19828;SDS011;10075;50.924;4.396;2023-05-10T06:55:23;31.25;;;19.60;;
19828;SDS011;10075;50.924;4.396;2023-05-10T06:57:51;30.70;;;19.88;;
19828;SDS011;10075;50.924;4.396;2023-05-10T07:00:19;33.13;;;21.25;;
19828;SDS011;10075;50.924;4.396;2023-05-10T07:02:46;31.70;;;19.58;;
19828;SDS011;10075;50.924;4.396;2023-05-10T07:05:13;33.70;;;21.17;;
19828;SDS011;10075;50.924;4.396;2023-05-10T07:07:40;32.58;;;20.60;;
19828;SDS011;10075;50.924;4.396;2023-05-10T07:10:09;34.15;;;20.75;;
19828;SDS011;10075;50.924;4.396;2023-05-10T07:12:36;31.63;;;21.67;;
19828;SDS011;10075;50.924;4.396;2023-05-10T07:15:03;29.23;;;19.23;;
19828;SDS011;10075;50.924;4.396;2023-05-10T07:17:31;35.92;;;21.05;;
19828;SDS011;10075;50.924;4.396;2023-05-10T07:19:59;33.35;;;20.65;;
19828;SDS011;10075;50.924;4.396;2023-05-10T07:22:27;37.50;;;19.80;;
19828;SDS011;10075;50.924;4.396;2023-05-10T07:24:54;37.22;;;21.38;;
19828;SDS011;10075;50.924;4.396;2023-05-10T07:27:22;39.08;;;23.80;;
19828;SDS011;10075;50.924;4.396;2023-05-10T07:29:49;40.80;;;22.90;;
19828;SDS011;10075;50.924;4.396;2023-05-10T07:32:16;41.20;;;23.27;;
19828;SDS011;10075;50.924;4.396;2023-05-10T07:34:43;42.03;;;23.50;;
19828;SDS011;10075;50.924;4.396;2023-05-10T07:37:10;41.88;;;23.65;;
19828;SDS011;10075;50.924;4.396;2023-05-10T07:39:37;38.58;;;21.90;;
19828;SDS011;10075;50.924;4.396;2023-05-10T07:42:04;36.35;;;20.08;;
19828;SDS011;10075;50.924;4.396;2023-05-10T07:44:33;39.35;;;20.13;;
19828;SDS011;10075;50.924;4.396;2023-05-10T07:47:00;34.15;;;19.77;;
19828;SDS011;10075;50.924;4.396;2023-05-10T07:49:27;34.20;;;19.92;;
19828;SDS011;10075;50.924;4.396;2023-05-10T07:51:54;30.73;;;19.73;;
19828;SDS011;10075;50.924;4.396;2023-05-10T07:54:21;32.28;;;18.23;;
19828;SDS011;10075;50.924;4.396;2023-05-10T07:56:48;35.90;;;18.73;;
19828;SDS011;10075;50.924;4.396;2023-05-10T07:59:16;30.33;;;16.75;;
19828;SDS011;10075;50.924;4.396;2023-05-10T08:01:45;30.70;;;17.15;;
19828;SDS011;10075;50.924;4.396;2023-05-10T08:04:12;29.08;;;15.57;;
19828;SDS011;10075;50.924;4.396;2023-05-10T08:06:39;28.45;;;16.15;;
19828;SDS011;10075;50.924;4.396;2023-05-10T08:09:06;24.70;;;15.23;;
19828;SDS011;10075;50.924;4.396;2023-05-10T08:11:33;23.50;;;14.55;;
19828;SDS011;10075;50.924;4.396;2023-05-10T08:14:00;21.08;;;15.02;;
19828;SDS011;10075;50.924;4.396;2023-05-10T08:16:27;22.20;;;12.98;;
19828;SDS011;10075;50.924;4.396;2023-05-10T08:18:56;22.27;;;12.48;;
19828;SDS011;10075;50.924;4.396;2023-05-10T08:21:23;21.27;;;11.85;;
19828;SDS011;10075;50.924;4.396;2023-05-10T08:23:51;21.38;;;11.18;;
19828;SDS011;10075;50.924;4.396;2023-05-10T08:26:18;19.63;;;12.48;;
19828;SDS011;10075;50.924;4.396;2023-05-10T08:28:46;20.48;;;11.18;;
19828;SDS011;10075;50.924;4.396;2023-05-10T08:31:12;24.08;;;11.65;;
19828;SDS011;10075;50.924;4.396;2023-05-10T08:33:39;25.73;;;12.80;;
19828;SDS011;10075;50.924;4.396;2023-05-10T08:36:08;17.60;;;11.13;;
19828;SDS011;10075;50.924;4.396;2023-05-10T08:38:35;22.17;;;11.73;;
19828;SDS011;10075;50.924;4.396;2023-05-10T08:41:02;20.17;;;11.93;;
19828;SDS011;10075;50.924;4.396;2023-05-10T08:43:30;17.23;;;10.95;;
19828;SDS011;10075;50.924;4.396;2023-05-10T08:45:59;15.88;;;10.38;;
19828;SDS011;10075;50.924;4.396;2023-05-10T08:48:27;18.95;;;10.75;;
19828;SDS011;10075;50.924;4.396;2023-05-10T08:50:56;16.25;;;9.93;;
19828;SDS011;10075;50.924;4.396;2023-05-10T08:53:28;15.85;;;9.63;;
19828;SDS011;10075;50.924;4.396;2023-05-10T08:55:57;18.20;;;10.82;;
19828;SDS011;10075;50.924;4.396;2023-05-10T08:58:25;14.93;;;9.88;;
19828;SDS011;10075;50.924;4.396;2023-05-10T09:00:52;15.93;;;9.82;;
19828;SDS011;10075;50.924;4.396;2023-05-10T09:03:20;12.50;;;9.13;;
19828;SDS011;10075;50.924;4.396;2023-05-10T09:05:47;11.57;;;8.32;;
19828;SDS011;10075;50.924;4.396;2023-05-10T09:08:15;15.27;;;9.25;;
19828;SDS011;10075;50.924;4.396;2023-05-10T09:10:44;12.65;;;9.45;;
19828;SDS011;10075;50.924;4.396;2023-05-10T09:13:12;14.35;;;9.10;;
19828;SDS011;10075;50.924;4.396;2023-05-10T09:15:43;14.27;;;9.15;;
19828;SDS011;10075;50.924;4.396;2023-05-10T09:18:11;15.50;;;9.95;;
19828;SDS011;10075;50.924;4.396;2023-05-10T09:20:38;12.63;;;8.52;;
19828;SDS011;10075;50.924;4.396;2023-05-10T09:23:05;11.52;;;8.82;;
19828;SDS011;10075;50.924;4.396;2023-05-10T09:25:32;12.27;;;8.63;;
19828;SDS011;10075;50.924;4.396;2023-05-10T09:28:01;13.18;;;8.90;;
19828;SDS011;10075;50.924;4.396;2023-05-10T09:30:28;13.75;;;9.23;;
19828;SDS011;10075;50.924;4.396;2023-05-10T09:32:57;12.45;;;9.63;;
19828;SDS011;10075;50.924;4.396;2023-05-10T09:35:25;12.02;;;8.65;;
19828;SDS011;10075;50.924;4.396;2023-05-10T09:37:55;12.85;;;8.98;;
19828;SDS011;10075;50.924;4.396;2023-05-10T09:40:23;13.98;;;8.88;;
19828;SDS011;10075;50.924;4.396;2023-05-10T09:42:52;12.95;;;8.13;;
19828;SDS011;10075;50.924;4.396;2023-05-10T09:45:22;12.90;;;9.20;;
19828;SDS011;10075;50.924;4.396;2023-05-10T09:47:50;12.63;;;9.35;;
19828;SDS011;10075;50.924;4.396;2023-05-10T09:50:19;11.98;;;8.95;;
19828;SDS011;10075;50.924;4.396;2023-05-10T09:52:47;10.68;;;8.40;;
19828;SDS011;10075;50.924;4.396;2023-05-10T09:55:16;12.05;;;9.18;;
19828;SDS011;10075;50.924;4.396;2023-05-10T09:57:44;11.02;;;8.40;;
19828;SDS011;10075;50.924;4.396;2023-05-10T10:00:13;10.73;;;7.47;;
19828;SDS011;10075;50.924;4.396;2023-05-10T10:02:46;10.73;;;8.55;;
19828;SDS011;10075;50.924;4.396;2023-05-10T10:05:14;12.68;;;8.40;;
19828;SDS011;10075;50.924;4.396;2023-05-10T10:07:41;10.57;;;7.95;;
19828;SDS011;10075;50.924;4.396;2023-05-10T10:10:09;10.75;;;7.50;;
19828;SDS011;10075;50.924;4.396;2023-05-10T10:12:39;11.65;;;8.27;;
19828;SDS011;10075;50.924;4.396;2023-05-10T10:15:07;11.02;;;8.20;;
19828;SDS011;10075;50.924;4.396;2023-05-10T10:17:35;11.88;;;7.50;;
19828;SDS011;10075;50.924;4.396;2023-05-10T10:20:06;10.68;;;7.65;;
19828;SDS011;10075;50.924;4.396;2023-05-10T10:22:33;10.10;;;7.07;;
19828;SDS011;10075;50.924;4.396;2023-05-10T10:25:00;11.35;;;7.35;;
19828;SDS011;10075;50.924;4.396;2023-05-10T10:27:28;10.48;;;7.65;;
19828;SDS011;10075;50.924;4.396;2023-05-10T10:30:09;11.95;;;7.95;;
19828;SDS011;10075;50.924;4.396;2023-05-10T10:32:55;10.77;;;7.70;;
19828;SDS011;10075;50.924;4.396;2023-05-10T10:35:34;9.60;;;7.40;;
19828;SDS011;10075;50.924;4.396;2023-05-10T10:38:03;8.23;;;6.40;;
19828;SDS011;10075;50.924;4.396;2023-05-10T10:40:30;9.18;;;7.00;;
19828;SDS011;10075;50.924;4.396;2023-05-10T10:43:20;8.07;;;5.97;;
19828;SDS011;10075;50.924;4.396;2023-05-10T10:48:38;11.38;;;7.00;;
19828;SDS011;10075;50.924;4.396;2023-05-10T10:51:07;8.65;;;6.72;;
19828;SDS011;10075;50.924;4.396;2023-05-10T10:53:34;8.48;;;6.75;;
19828;SDS011;10075;50.924;4.396;2023-05-10T10:56:07;8.15;;;7.25;;
19828;SDS011;10075;50.924;4.396;2023-05-10T10:58:37;9.48;;;6.93;;
19828;SDS011;10075;50.924;4.396;2023-05-10T11:01:11;10.05;;;7.25;;
19828;SDS011;10075;50.924;4.396;2023-05-10T11:03:40;8.93;;;6.50;;
19828;SDS011;10075;50.924;4.396;2023-05-10T11:06:09;9.70;;;6.78;;
19828;SDS011;10075;50.924;4.396;2023-05-10T11:08:41;7.22;;;6.20;;
19828;SDS011;10075;50.924;4.396;2023-05-10T11:11:09;9.07;;;6.70;;
19828;SDS011;10075;50.924;4.396;2023-05-10T11:13:41;11.15;;;6.95;;
19828;SDS011;10075;50.924;4.396;2023-05-10T11:16:13;9.90;;;6.55;;
19828;SDS011;10075;50.924;4.396;2023-05-10T11:18:51;9.20;;;6.82;;
19828;SDS011;10075;50.924;4.396;2023-05-10T11:21:22;12.00;;;7.30;;
19828;SDS011;10075;50.924;4.396;2023-05-10T11:23:49;9.43;;;6.75;;
19828;SDS011;10075;50.924;4.396;2023-05-10T11:26:21;7.10;;;5.65;;
19828;SDS011;10075;50.924;4.396;2023-05-10T11:28:50;8.55;;;6.40;;
19828;SDS011;10075;50.924;4.396;2023-05-10T11:31:19;9.88;;;6.82;;
19828;SDS011;10075;50.924;4.396;2023-05-10T11:33:47;7.50;;;6.10;;
19828;SDS011;10075;50.924;4.396;2023-05-10T11:36:16;8.77;;;5.95;;
19828;SDS011;10075;50.924;4.396;2023-05-10T11:38:46;7.03;;;5.60;;
19828;SDS011;10075;50.924;4.396;2023-05-10T11:41:14;7.75;;;5.70;;
19828;SDS011;10075;50.924;4.396;2023-05-10T11:43:42;7.78;;;5.93;;
19828;SDS011;10075;50.924;4.396;2023-05-10T11:46:14;7.95;;;5.88;;
19828;SDS011;10075;50.924;4.396;2023-05-10T11:48:41;7.78;;;5.68;;
19828;SDS011;10075;50.924;4.396;2023-05-10T11:51:09;7.63;;;5.63;;
19828;SDS011;10075;50.924;4.396;2023-05-10T11:53:37;7.35;;;5.78;;
19828;SDS011;10075;50.924;4.396;2023-05-10T11:56:06;7.13;;;5.38;;
19828;SDS011;10075;50.924;4.396;2023-05-10T11:58:34;7.75;;;5.88;;
19828;SDS011;10075;50.924;4.396;2023-05-10T12:01:03;9.45;;;5.90;;
19828;SDS011;10075;50.924;4.396;2023-05-10T12:03:31;6.40;;;5.75;;
19828;SDS011;10075;50.924;4.396;2023-05-10T12:05:59;9.20;;;6.80;;
19828;SDS011;10075;50.924;4.396;2023-05-10T12:08:27;8.65;;;6.43;;
19828;SDS011;10075;50.924;4.396;2023-05-10T12:11:03;10.20;;;7.30;;
19828;SDS011;10075;50.924;4.396;2023-05-10T12:13:37;11.93;;;7.05;;
19828;SDS011;10075;50.924;4.396;2023-05-10T12:16:12;8.68;;;7.00;;
19828;SDS011;10075;50.924;4.396;2023-05-10T12:18:40;8.70;;;6.43;;
19828;SDS011;10075;50.924;4.396;2023-05-10T12:21:08;10.02;;;6.90;;
19828;SDS011;10075;50.924;4.396;2023-05-10T12:23:36;8.07;;;6.40;;
19828;SDS011;10075;50.924;4.396;2023-05-10T12:26:05;8.48;;;7.00;;
19828;SDS011;10075;50.924;4.396;2023-05-10T12:28:35;9.15;;;7.00;;
19828;SDS011;10075;50.924;4.396;2023-05-10T12:31:02;8.70;;;5.97;;
19828;SDS011;10075;50.924;4.396;2023-05-10T12:33:35;9.70;;;6.60;;
19828;SDS011;10075;50.924;4.396;2023-05-10T12:36:04;9.50;;;6.82;;
19828;SDS011;10075;50.924;4.396;2023-05-10T12:38:32;9.75;;;7.55;;
19828;SDS011;10075;50.924;4.396;2023-05-10T12:41:01;8.75;;;7.03;;
19828;SDS011;10075;50.924;4.396;2023-05-10T12:43:30;10.95;;;7.05;;
19828;SDS011;10075;50.924;4.396;2023-05-10T12:45:58;9.38;;;5.93;;
19828;SDS011;10075;50.924;4.396;2023-05-10T12:48:25;8.50;;;6.40;;
19828;SDS011;10075;50.924;4.396;2023-05-10T12:50:53;10.38;;;7.22;;
19828;SDS011;10075;50.924;4.396;2023-05-10T12:53:20;9.75;;;7.53;;
19828;SDS011;10075;50.924;4.396;2023-05-10T12:55:47;11.13;;;6.63;;
19828;SDS011;10075;50.924;4.396;2023-05-10T12:58:14;9.23;;;6.82;;
19828;SDS011;10075;50.924;4.396;2023-05-10T13:00:43;8.82;;;5.97;;
19828;SDS011;10075;50.924;4.396;2023-05-10T13:03:10;10.45;;;6.70;;
19828;SDS011;10075;50.924;4.396;2023-05-10T13:05:37;9.40;;;6.72;;
19828;SDS011;10075;50.924;4.396;2023-05-10T13:08:04;9.63;;;6.15;;
19828;SDS011;10075;50.924;4.396;2023-05-10T13:10:31;10.18;;;6.75;;
19828;SDS011;10075;50.924;4.396;2023-05-10T13:12:58;7.28;;;6.07;;
19828;SDS011;10075;50.924;4.396;2023-05-10T13:15:25;7.53;;;5.70;;
19828;SDS011;10075;50.924;4.396;2023-05-10T13:17:54;7.60;;;5.60;;
19828;SDS011;10075;50.924;4.396;2023-05-10T13:20:21;7.35;;;5.70;;
19828;SDS011;10075;50.924;4.396;2023-05-10T13:22:49;8.55;;;5.45;;
19828;SDS011;10075;50.924;4.396;2023-05-10T13:25:16;6.75;;;4.93;;
19828;SDS011;10075;50.924;4.396;2023-05-10T13:27:43;7.50;;;5.55;;
19828;SDS011;10075;50.924;4.396;2023-05-10T13:30:11;7.07;;;5.20;;
19828;SDS011;10075;50.924;4.396;2023-05-10T13:32:38;7.47;;;6.05;;
19828;SDS011;10075;50.924;4.396;2023-05-10T13:35:07;8.90;;;6.95;;
19828;SDS011;10075;50.924;4.396;2023-05-10T13:37:34;7.70;;;6.13;;
19828;SDS011;10075;50.924;4.396;2023-05-10T13:40:02;8.93;;;6.55;;
19828;SDS011;10075;50.924;4.396;2023-05-10T13:42:31;9.15;;;6.80;;
19828;SDS011;10075;50.924;4.396;2023-05-10T13:44:58;8.65;;;6.22;;
19828;SDS011;10075;50.924;4.396;2023-05-10T13:47:26;6.82;;;5.90;;
19828;SDS011;10075;50.924;4.396;2023-05-10T13:49:53;11.25;;;7.05;;
19828;SDS011;10075;50.924;4.396;2023-05-10T13:52:21;9.73;;;6.80;;
19828;SDS011;10075;50.924;4.396;2023-05-10T13:54:48;7.60;;;6.28;;
19828;SDS011;10075;50.924;4.396;2023-05-10T13:57:17;8.88;;;6.38;;
19828;SDS011;10075;50.924;4.396;2023-05-10T13:59:44;11.48;;;8.57;;
19828;SDS011;10075;50.924;4.396;2023-05-10T14:02:11;12.57;;;9.40;;
19828;SDS011;10075;50.924;4.396;2023-05-10T14:04:38;13.82;;;11.38;;
19828;SDS011;10075;50.924;4.396;2023-05-10T14:07:05;13.45;;;11.15;;
19828;SDS011;10075;50.924;4.396;2023-05-10T14:09:33;13.85;;;12.38;;
19828;SDS011;10075;50.924;4.396;2023-05-10T14:12:01;14.13;;;12.18;;
19828;SDS011;10075;50.924;4.396;2023-05-10T14:14:28;17.00;;;13.70;;
19828;SDS011;10075;50.924;4.396;2023-05-10T14:16:55;14.98;;;12.48;;
19828;SDS011;10075;50.924;4.396;2023-05-10T14:19:22;15.63;;;12.15;;
19828;SDS011;10075;50.924;4.396;2023-05-10T14:21:49;16.23;;;11.85;;
19828;SDS011;10075;50.924;4.396;2023-05-10T14:24:17;16.05;;;12.40;;
19828;SDS011;10075;50.924;4.396;2023-05-10T14:26:45;16.30;;;11.63;;
19828;SDS011;10075;50.924;4.396;2023-05-10T14:29:12;15.68;;;11.20;;
19828;SDS011;10075;50.924;4.396;2023-05-10T14:31:39;17.50;;;11.68;;
19828;SDS011;10075;50.924;4.396;2023-05-10T14:34:06;14.60;;;11.75;;
19828;SDS011;10075;50.924;4.396;2023-05-10T14:36:33;14.45;;;11.10;;
19828;SDS011;10075;50.924;4.396;2023-05-10T14:39:00;18.80;;;11.63;;